Time;durP1;ratioP1;P1;durP2;ratioP2;P2;SDS_P1;SDS_P2;PMS_P1;PMS_P2;Temp;Humidity;BMP_temperature;BMP_pressure;BME280_temperature;BME280_humidity;BME280_pressure;Samples;Min_cycle;Max_cycle;Signal;HPM_P1;HPM_P2
2022/12/12 00:01:31;;;;;;;;;;;;;;;2.84;54.52;99977.97;4786922;29;8475;-71
2022/12/12 00:03:57;;;;;;;;;;;;;;;2.80;55.03;99983.59;4799244;29;7214;-72
2022/12/12 00:06:24;;;;;;;;;;;;;;;2.76;54.86;99987.56;4801746;29;6805;-72
2022/12/12 00:08:50;;;;;;;;;;;;;;;2.72;54.58;99986.44;4804792;29;6990;-72
2022/12/12 00:11:17;;;;;;;;;;;;;;;2.69;54.24;99991.28;4785303;29;6961;-72
2022/12/12 00:13:43;;;;;;;;;;;;;;;2.64;54.17;99990.06;4782047;29;6867;-72
2022/12/12 00:16:09;;;;;;;;;;;;;;;2.60;54.22;99991.47;4795784;29;7942;-72
2022/12/12 00:18:35;;;;;;;;;;;;;;;2.57;54.13;99998.84;4787428;29;6765;-72
2022/12/12 00:21:05;;;;;;;;;;;;;;;2.51;55.13;99995.88;4790063;29;6980;-72
2022/12/12 00:23:31;;;;;;;;;;;;;;;2.47;54.46;99997.31;4770645;29;7081;-71
2022/12/12 00:26:05;;;;;;;;;;;;;;;2.44;54.22;100001.25;4778195;29;7160;-72
2022/12/12 00:28:31;;;;;;;;;;;;;;;2.40;55.26;100001.78;4758887;29;8744;-71
2022/12/12 00:30:57;;;;;;;;;;;;;;;2.38;54.91;100008.38;4790747;29;8476;-71
2022/12/12 00:33:23;;;;;;;;;;;;;;;2.33;54.89;100003.88;4789002;29;6785;-71
2022/12/12 00:35:51;;;;;;;;;;;;;;;2.33;55.15;100006.41;4786831;29;6781;-71
2022/12/12 00:38:19;;;;;;;;;;;;;;;2.32;55.08;99999.59;4796976;29;6970;-72
2022/12/12 00:40:44;;;;;;;;;;;;;;;2.32;55.46;100004.66;4786826;29;6977;-72
2022/12/12 00:43:10;;;;;;;;;;;;;;;2.31;55.62;100007.91;4786208;29;6838;-72
2022/12/12 00:45:37;;;;;;;;;;;;;;;2.31;55.24;100007.91;4781046;29;7162;-71
2022/12/12 00:48:04;;;;;;;;;;;;;;;2.31;55.01;100007.06;4784859;29;6967;-71
2022/12/12 00:50:31;;;;;;;;;;;;;;;2.31;55.38;100007.06;4785608;29;6825;-72
2022/12/12 00:52:57;;;;;;;;;;;;;;;2.31;55.46;100012.97;4798458;29;6805;-72
2022/12/12 00:55:24;;;;;;;;;;;;;;;2.33;55.87;100001.34;4790080;29;7150;-72
2022/12/12 00:57:52;;;;;;;;;;;;;;;2.35;55.69;100006.50;4787173;29;7201;-71
2022/12/12 01:00:18;;;;;;;;;;;;;;;2.37;55.36;100015.09;4764070;29;6991;-72
2022/12/12 01:02:44;;;;;;;;;;;;;;;2.37;55.91;100012.59;4805253;29;7315;-71
2022/12/12 01:05:10;;;;;;;;;;;;;;;2.42;56.00;100017.97;4764638;29;7163;-72
2022/12/12 01:07:36;;;;;;;;;;;;;;;2.45;56.59;100016.53;4781451;29;8509;-71
2022/12/12 01:10:04;;;;;;;;;;;;;;;2.49;56.67;100017.66;4784809;29;7143;-71
2022/12/12 01:12:30;;;;;;;;;;;;;;;2.55;56.75;100012.16;4788895;29;6808;-71
2022/12/12 01:14:56;;;;;;;;;;;;;;;2.61;56.45;100015.16;4781987;29;8499;-71
2022/12/12 01:17:21;;;;;;;;;;;;;;;2.67;56.35;100022.31;4790235;29;6808;-72
2022/12/12 01:19:47;;;;;;;;;;;;;;;2.71;56.83;100020.13;4801708;29;7264;-71
2022/12/12 01:22:13;;;;;;;;;;;;;;;2.79;56.39;100033.31;4803708;29;6777;-72
2022/12/12 01:24:38;;;;;;;;;;;;;;;2.84;56.91;100037.09;4810472;29;7012;-71
2022/12/12 01:27:04;;;;;;;;;;;;;;;2.90;56.53;100035.00;4798883;29;6769;-72
2022/12/12 01:29:31;;;;;;;;;;;;;;;2.94;56.93;100033.56;4802788;29;6781;-71
2022/12/12 01:31:57;;;;;;;;;;;;;;;3.00;57.08;100038.22;4789848;29;7048;-71
2022/12/12 01:34:22;;;;;;;;;;;;;;;3.01;56.08;100037.44;4780924;29;7481;-71
2022/12/12 01:36:48;;;;;;;;;;;;;;;3.02;57.04;100034.13;4786669;29;6769;-72
2022/12/12 01:39:14;;;;;;;;;;;;;;;3.00;56.59;100034.00;4790436;29;8592;-72
2022/12/12 01:41:42;;;;;;;;;;;;;;;2.97;56.11;100035.44;4784995;29;6769;-71
2022/12/12 01:44:46;;;;;;;;;;;;;;;2.91;56.17;100034.25;4781703;29;8622;-72
2022/12/12 01:47:16;;;;;;;;;;;;;;;2.81;55.42;100035.97;4785018;29;6805;-72
2022/12/12 01:50:09;;;;;;;;;;;;;;;2.72;56.34;100041.25;4768736;29;6968;-71
2022/12/12 01:52:47;;;;;;;;;;;;;;;2.62;55.95;100035.50;4785869;29;7330;-72
2022/12/12 01:55:21;;;;;;;;;;;;;;;2.54;56.30;100045.81;4775600;29;7097;-72
2022/12/12 01:57:52;;;;;;;;;;;;;;;2.47;55.71;100041.97;4780485;29;8928;-72
2022/12/12 02:00:19;;;;;;;;;;;;;;;2.39;55.92;100050.63;4788918;29;6956;-72
2022/12/12 02:02:47;;;;;;;;;;;;;;;2.33;55.23;100054.47;4787582;29;7220;-72
2022/12/12 02:05:32;;;;;;;;;;;;;;;2.26;55.16;100057.28;4789020;29;6805;-71
2022/12/12 02:08:02;;;;;;;;;;;;;;;2.17;55.87;100056.59;4788611;29;6937;-72
2022/12/12 02:10:28;;;;;;;;;;;;;;;2.10;54.77;100047.66;4783201;29;6801;-71
2022/12/12 02:13:02;;;;;;;;;;;;;;;2.00;54.79;100053.66;4785645;29;6781;-72
2022/12/12 02:15:43;;;;;;;;;;;;;;;1.92;55.05;100052.16;4785015;29;7018;-71
2022/12/12 02:18:23;;;;;;;;;;;;;;;1.82;55.55;100050.59;4783483;29;7216;-71
2022/12/12 02:21:21;;;;;;;;;;;;;;;1.74;55.46;100060.13;4802785;29;6873;-71
2022/12/12 02:24:06;;;;;;;;;;;;;;;1.65;55.67;100062.78;4799901;29;6821;-72
2022/12/12 02:27:13;;;;;;;;;;;;;;;1.61;55.79;100064.97;4793227;29;6805;-72
2022/12/12 02:30:06;;;;;;;;;;;;;;;1.56;56.81;100058.69;4798663;29;6793;-71
2022/12/12 02:33:20;;;;;;;;;;;;;;;1.53;56.53;100057.66;4795519;29;6836;-71
2022/12/12 02:36:05;;;;;;;;;;;;;;;1.53;56.39;100064.38;4780054;29;8544;-72
2022/12/12 02:38:52;;;;;;;;;;;;;;;1.53;56.70;100064.38;4801105;29;7229;-71
2022/12/12 02:41:42;;;;;;;;;;;;;;;1.51;56.67;100064.25;4785859;29;6797;-70
2022/12/12 02:44:41;;;;;;;;;;;;;;;1.51;56.34;100063.38;4796214;29;6817;-70
2022/12/12 02:47:29;;;;;;;;;;;;;;;1.47;57.01;100057.19;4797148;29;8461;-71
2022/12/12 02:50:07;;;;;;;;;;;;;;;1.48;56.90;100058.06;4788984;29;6986;-71
2022/12/12 02:52:33;;;;;;;;;;;;;;;1.46;56.18;100059.59;4780547;29;7314;-71
2022/12/12 02:54:59;;;;;;;;;;;;;;;1.46;56.47;100055.44;4793347;29;6825;-71
2022/12/12 02:57:26;;;;;;;;;;;;;;;1.42;56.13;100058.47;4791442;29;6872;-71
2022/12/12 03:00:00;;;;;;;;;;;;;;;1.39;55.90;100061.63;4808168;29;8308;-72
2022/12/12 03:09:25;;;;;;;;;;;;;;;1.24;55.51;100055.38;4789157;29;7140;-72
2022/12/12 03:12:13;;;;;;;;;;;;;;;1.18;55.71;100049.81;4786415;29;6871;-72
2022/12/12 03:15:15;;;;;;;;;;;;;;;1.14;55.77;100051.22;4786474;29;6965;-70
2022/12/12 03:17:56;;;;;;;;;;;;;;;1.12;55.91;100052.75;4780313;29;6817;-71
2022/12/12 03:20:43;;;;;;;;;;;;;;;1.10;55.75;100056.78;4779096;29;6817;-72
2022/12/12 03:23:25;;;;;;;;;;;;;;;1.07;55.71;100048.97;4783966;29;8488;-72
2022/12/12 03:26:02;;;;;;;;;;;;;;;1.03;55.87;100057.06;4770664;29;7410;-71
2022/12/12 03:28:42;;;;;;;;;;;;;;;1.00;55.50;100056.81;4785641;29;6813;-71
2022/12/12 03:31:11;;;;;;;;;;;;;;;0.96;55.86;100048.09;4790416;29;6817;-70
2022/12/12 03:33:37;;;;;;;;;;;;;;;0.93;55.56;100051.25;4757150;29;8412;-72
2022/12/12 03:36:41;;;;;;;;;;;;;;;0.92;55.72;100039.41;4796153;29;8501;-71
2022/12/12 03:39:30;;;;;;;;;;;;;;;0.89;56.19;100049.25;4791723;29;6822;-71
2022/12/12 03:42:07;;;;;;;;;;;;;;;0.87;55.73;100048.25;4784843;29;7160;-71
2022/12/12 03:44:47;;;;;;;;;;;;;;;0.87;55.81;100050.78;4772154;29;7089;-70
2022/12/12 03:47:22;;;;;;;;;;;;;;;0.87;56.03;100047.38;4781745;29;7045;-71
2022/12/12 03:50:10;;;;;;;;;;;;;;;0.85;56.03;100049.75;4782584;29;7006;-71
2022/12/12 03:53:00;;;;;;;;;;;;;;;0.80;55.95;100051.03;4778493;29;6851;-72
2022/12/12 03:55:37;;;;;;;;;;;;;;;0.75;56.16;100049.75;4778654;29;8817;-71
2022/12/12 03:58:31;;;;;;;;;;;;;;;0.72;56.23;100052.91;4762703;29;6989;-74
2022/12/12 04:01:03;;;;;;;;;;;;;;;0.69;56.40;100061.13;4786327;29;6955;-72
2022/12/12 04:03:50;;;;;;;;;;;;;;;0.72;56.79;100057.09;4764025;29;7041;-72
2022/12/12 04:06:42;;;;;;;;;;;;;;;0.74;56.92;100051.41;4799092;29;8019;-72
2022/12/12 04:13:00;;;;;;;;;;;;;;;0.82;57.23;100057.09;4789874;29;6971;-72
2022/12/12 04:15:35;;;;;;;;;;;;;;;0.86;56.75;100070.84;4799789;29;6833;-72
2022/12/12 04:18:13;;;;;;;;;;;;;;;0.86;56.26;100064.13;4768388;29;7084;-72
2022/12/12 04:24:01;;;;;;;;;;;;;;;0.83;56.17;100063.88;4784647;29;6778;-73
2022/12/12 04:26:38;;;;;;;;;;;;;;;0.82;56.35;100069.69;4782933;29;6813;-72
2022/12/12 04:29:30;;;;;;;;;;;;;;;0.82;56.52;100075.66;4776403;29;7200;-72
2022/12/12 04:32:19;;;;;;;;;;;;;;;0.83;56.23;100074.88;4780851;29;6949;-72
2022/12/12 04:35:09;;;;;;;;;;;;;;;0.81;56.24;100083.06;4803016;29;6797;-72
2022/12/12 04:37:55;;;;;;;;;;;;;;;0.80;55.85;100078.78;4785577;29;6797;-72
2022/12/12 04:40:33;;;;;;;;;;;;;;;0.76;56.12;100081.81;4788018;29;7105;-72
2022/12/12 04:43:10;;;;;;;;;;;;;;;0.74;55.81;100083.31;4782419;29;6829;-72
2022/12/12 04:45:56;;;;;;;;;;;;;;;0.69;55.68;100076.28;4792415;29;6809;-72
2022/12/12 04:48:49;;;;;;;;;;;;;;;0.62;55.63;100079.03;4785132;29;6797;-72
2022/12/12 04:51:25;;;;;;;;;;;;;;;0.57;55.65;100090.38;4767676;29;8518;-72
2022/12/12 04:54:09;;;;;;;;;;;;;;;0.56;55.67;100086.09;4783620;29;6862;-72
2022/12/12 04:56:39;;;;;;;;;;;;;;;0.53;55.57;100088.38;4787290;29;6962;-72
2022/12/12 04:59:07;;;;;;;;;;;;;;;0.50;55.45;100089.00;4791430;29;7847;-72
2022/12/12 05:01:48;;;;;;;;;;;;;;;0.48;55.69;100082.03;4770644;29;6813;-72
2022/12/12 05:04:30;;;;;;;;;;;;;;;0.47;55.87;100077.75;4804149;29;6825;-72
2022/12/12 05:07:12;;;;;;;;;;;;;;;0.45;56.24;100080.19;4783024;29;7258;-72
2022/12/12 05:09:39;;;;;;;;;;;;;;;0.48;56.20;100089.59;4784151;29;7266;-72
2022/12/12 05:12:05;;;;;;;;;;;;;;;0.47;56.14;100085.31;4786243;29;7285;-72
2022/12/12 05:14:31;;;;;;;;;;;;;;;0.47;56.17;100087.84;4780495;29;6977;-72
2022/12/12 05:17:09;;;;;;;;;;;;;;;0.48;55.85;100095.56;4761645;29;7249;-72
2022/12/12 05:19:35;;;;;;;;;;;;;;;0.47;56.03;100097.94;4775400;29;8546;-72
2022/12/12 05:22:01;;;;;;;;;;;;;;;0.45;55.91;100096.94;4783509;29;7206;-72
2022/12/12 05:24:30;;;;;;;;;;;;;;;0.41;55.45;100100.81;4781856;29;7303;-72
2022/12/12 05:26:57;;;;;;;;;;;;;;;0.37;55.84;100103.88;4805960;29;6813;-72
2022/12/12 05:29:23;;;;;;;;;;;;;;;0.30;55.46;100101.56;4783680;29;6833;-72
2022/12/12 05:31:49;;;;;;;;;;;;;;;0.30;55.91;100099.06;4788441;29;6868;-72
2022/12/12 05:34:14;;;;;;;;;;;;;;;0.27;55.91;100092.09;4785563;29;6950;-72
2022/12/12 05:36:40;;;;;;;;;;;;;;;0.27;56.04;100102.19;4797347;29;6923;-72
2022/12/12 05:39:06;;;;;;;;;;;;;;;0.27;56.43;100094.63;4765778;29;7164;-72
2022/12/12 05:41:31;;;;;;;;;;;;;;;0.26;56.06;100095.38;4789662;29;7858;-72
2022/12/12 05:43:57;;;;;;;;;;;;;;;0.25;56.01;100098.66;4803439;29;6834;-72
2022/12/12 05:46:23;;;;;;;;;;;;;;;0.22;55.99;100098.41;4806208;29;7231;-72
2022/12/12 05:48:49;;;;;;;;;;;;;;;0.20;55.58;100105.84;4778966;29;6854;-72
2022/12/12 05:51:16;;;;;;;;;;;;;;;0.20;55.78;100097.41;4766775;29;8877;-72
2022/12/12 05:53:43;;;;;;;;;;;;;;;0.19;55.41;100106.59;4780971;29;6810;-72
2022/12/12 05:56:11;;;;;;;;;;;;;;;0.17;55.65;100104.69;4777294;29;9544;-72
2022/12/12 05:58:38;;;;;;;;;;;;;;;0.16;55.85;100100.41;4790136;29;6801;-72
2022/12/12 06:01:04;;;;;;;;;;;;;;;0.17;55.76;100108.09;4781428;29;6857;-72
2022/12/12 06:03:31;;;;;;;;;;;;;;;0.16;55.85;100111.38;4768725;29;7173;-72
2022/12/12 06:05:57;;;;;;;;;;;;;;;0.17;55.91;100112.25;4788145;29;7004;-72
2022/12/12 06:08:22;;;;;;;;;;;;;;;0.20;55.81;100112.53;4786759;29;7254;-72
2022/12/12 06:10:50;;;;;;;;;;;;;;;0.23;55.74;100115.31;4789762;29;7043;-72
2022/12/12 06:13:15;;;;;;;;;;;;;;;0.23;56.15;100110.25;4769739;29;7277;-72
2022/12/12 06:15:41;;;;;;;;;;;;;;;0.23;55.77;100117.81;4782683;29;7030;-72
2022/12/12 06:18:08;;;;;;;;;;;;;;;0.21;55.70;100121.84;4773862;29;6965;-72
2022/12/12 06:20:35;;;;;;;;;;;;;;;0.19;55.33;100119.19;4784475;29;6857;-72
2022/12/12 06:23:00;;;;;;;;;;;;;;;0.17;55.32;100123.22;4790142;29;6809;-72
2022/12/12 06:25:26;;;;;;;;;;;;;;;0.11;55.57;100123.59;4788987;29;7109;-72
2022/12/12 06:27:51;;;;;;;;;;;;;;;0.09;55.54;100124.22;4787268;29;7140;-73
2022/12/12 06:30:17;;;;;;;;;;;;;;;0.05;55.57;100125.59;4785182;29;8223;-72
2022/12/12 06:32:43;;;;;;;;;;;;;;;0.05;55.61;100127.22;4802059;29;7088;-72
2022/12/12 06:35:10;;;;;;;;;;;;;;;0.04;55.82;100131.38;4789504;29;7317;-72
2022/12/12 06:37:37;;;;;;;;;;;;;;;0.05;55.33;100137.28;4774927;29;7216;-72
2022/12/12 06:40:04;;;;;;;;;;;;;;;0.03;55.90;100134.66;4801573;29;6800;-72
2022/12/12 06:42:29;;;;;;;;;;;;;;;0.07;55.41;100138.31;4782988;29;6797;-73
2022/12/12 06:44:55;;;;;;;;;;;;;;;0.07;55.99;100135.81;4794927;29;6949;-73
2022/12/12 06:47:21;;;;;;;;;;;;;;;0.07;55.77;100133.28;4788313;29;6968;-72
2022/12/12 06:49:47;;;;;;;;;;;;;;;0.07;55.67;100141.72;4770124;29;7142;-73
2022/12/12 06:52:12;;;;;;;;;;;;;;;0.06;55.43;100134.03;4784804;29;7044;-73
2022/12/12 06:54:38;;;;;;;;;;;;;;;0.05;55.75;100140.72;4781537;29;6773;-73
2022/12/12 06:57:04;;;;;;;;;;;;;;;0.06;55.52;100144.13;4786860;29;6971;-73
2022/12/12 06:59:29;;;;;;;;;;;;;;;0.04;55.63;100146.50;4789306;29;6857;-72
2022/12/12 07:01:56;;;;;;;;;;;;;;;0.03;54.83;100147.25;4787661;29;7269;-72
2022/12/12 07:04:22;;;;;;;;;;;;;;;-0.01;55.11;100148.63;4796429;29;6805;-72
2022/12/12 07:06:47;;;;;;;;;;;;;;;-0.04;54.87;100152.50;4796961;29;7031;-74
2022/12/12 07:09:13;;;;;;;;;;;;;;;-0.08;54.99;100158.91;4790367;29;6785;-72
2022/12/12 07:11:40;;;;;;;;;;;;;;;-0.10;55.06;100157.00;4796512;29;7004;-72
2022/12/12 07:14:06;;;;;;;;;;;;;;;-0.15;54.60;100162.56;4781056;29;6987;-72
2022/12/12 07:16:32;;;;;;;;;;;;;;;-0.16;54.89;100157.38;4799958;29;7060;-72
2022/12/12 07:18:58;;;;;;;;;;;;;;;-0.19;54.68;100164.66;4780515;29;6987;-72
2022/12/12 07:21:25;;;;;;;;;;;;;;;-0.23;54.69;100167.69;4786967;29;6857;-72
2022/12/12 07:23:50;;;;;;;;;;;;;;;-0.25;54.46;100165.03;4803007;29;6813;-72
2022/12/12 07:26:21;;;;;;;;;;;;;;;-0.28;54.86;100162.25;4788549;29;6853;-74
2022/12/12 07:28:48;;;;;;;;;;;;;;;-0.31;54.75;100162.84;4768441;29;7242;-72
2022/12/12 07:31:18;;;;;;;;;;;;;;;-0.33;54.87;100160.94;4780924;29;8995;-72
2022/12/12 07:33:44;;;;;;;;;;;;;;;-0.36;54.80;100168.25;4804645;29;7709;-72
2022/12/12 07:36:12;;;;;;;;;;;;;;;-0.40;54.55;100161.16;4796496;29;6821;-72
2022/12/12 07:38:38;;;;;;;;;;;;;;;-0.46;54.87;100162.41;4782719;29;7012;-72
2022/12/12 07:41:12;;;;;;;;;;;;;;;-0.48;55.02;100165.53;4786484;29;6790;-72
2022/12/12 07:43:41;;;;;;;;;;;;;;;-0.49;55.01;100166.28;4802202;29;6790;-72
2022/12/12 07:46:09;;;;;;;;;;;;;;;-0.47;55.22;100167.28;4801672;29;7800;-73
2022/12/12 07:48:35;;;;;;;;;;;;;;;-0.44;55.90;100163.41;4789851;29;7456;-72
2022/12/12 07:51:02;;;;;;;;;;;;;;;-0.39;56.08;100157.88;4801406;29;8509;-72
2022/12/12 07:53:28;;;;;;;;;;;;;;;-0.36;55.82;100169.09;4792783;29;6797;-72
2022/12/12 07:55:53;;;;;;;;;;;;;;;-0.31;55.75;100164.47;4761192;29;6959;-72
2022/12/12 07:58:19;;;;;;;;;;;;;;;-0.29;55.76;100168.00;4785832;29;7231;-72
2022/12/12 08:00:45;;;;;;;;;;;;;;;-0.25;56.05;100175.09;4781496;29;6993;-72
2022/12/12 08:03:10;;;;;;;;;;;;;;;-0.21;56.21;100172.09;4787578;29;6985;-72
2022/12/12 08:05:43;;;;;;;;;;;;;;;-0.15;56.28;100184.31;4788221;29;6967;-72
2022/12/12 08:08:08;;;;;;;;;;;;;;;-0.11;55.91;100186.38;4803941;29;6972;-72
2022/12/12 08:10:38;;;;;;;;;;;;;;;-0.08;56.04;100189.16;4778135;29;6947;-72
2022/12/12 08:13:04;;;;;;;;;;;;;;;-0.04;55.57;100192.84;4805872;29;6805;-72
2022/12/12 08:15:29;;;;;;;;;;;;;;;-0.04;55.26;100185.28;4808495;29;6789;-72
2022/12/12 08:17:55;;;;;;;;;;;;;;;-0.02;55.42;100188.81;4801231;29;7262;-72
2022/12/12 08:20:21;;;;;;;;;;;;;;;-0.03;55.16;100189.56;4785587;29;6789;-72
2022/12/12 08:22:47;;;;;;;;;;;;;;;-0.05;55.18;100186.03;4790328;29;6979;-72
2022/12/12 08:25:13;;;;;;;;;;;;;;;-0.04;55.24;100193.72;4787563;29;8167;-72
2022/12/12 08:27:39;;;;;;;;;;;;;;;-0.04;55.35;100193.72;4771578;29;6991;-72
2022/12/12 08:30:05;;;;;;;;;;;;;;;-0.03;55.00;100194.59;4805663;29;7309;-72
2022/12/12 08:32:31;;;;;;;;;;;;;;;-0.01;55.68;100195.59;4789635;29;6821;-72
2022/12/12 08:34:57;;;;;;;;;;;;;;;0.01;55.10;100196.66;4789412;29;6989;-72
2022/12/12 08:37:23;;;;;;;;;;;;;;;0.04;55.06;100198.53;4788450;29;7173;-72
2022/12/12 08:39:49;;;;;;;;;;;;;;;0.06;55.33;100197.91;4788253;29;7147;-73
2022/12/12 08:42:16;;;;;;;;;;;;;;;0.07;55.52;100194.66;4787482;29;7322;-72
2022/12/12 08:44:41;;;;;;;;;;;;;;;0.09;55.29;100193.13;4790319;29;7371;-72
2022/12/12 08:47:07;;;;;;;;;;;;;;;0.13;55.35;100201.84;4787937;29;6813;-72
2022/12/12 08:49:33;;;;;;;;;;;;;;;0.18;55.41;100207.28;4806066;29;6808;-72
2022/12/12 08:51:58;;;;;;;;;;;;;;;0.19;55.24;100207.44;4790625;29;6785;-72
2022/12/12 08:54:25;;;;;;;;;;;;;;;0.22;55.20;100202.63;4805745;29;6777;-72
2022/12/12 08:56:50;;;;;;;;;;;;;;;0.28;55.62;100209.84;4802693;29;7334;-72
2022/12/12 08:59:16;;;;;;;;;;;;;;;0.32;55.54;100211.91;4775550;29;6957;-72
2022/12/12 09:01:42;;;;;;;;;;;;;;;0.38;55.46;100222.47;4767942;29;6961;-72
2022/12/12 09:04:07;;;;;;;;;;;;;;;0.44;55.79;100223.78;4803522;29;7222;-72
2022/12/12 09:06:33;;;;;;;;;;;;;;;0.49;55.40;100223.41;4800088;29;6857;-73
2022/12/12 09:08:59;;;;;;;;;;;;;;;0.57;55.47;100228.25;4784115;29;7056;-72
2022/12/12 09:11:25;;;;;;;;;;;;;;;0.63;55.44;100232.16;4809834;29;6797;-72
2022/12/12 09:13:51;;;;;;;;;;;;;;;0.69;55.51;100232.69;4769888;29;7258;-72
2022/12/12 09:16:18;;;;;;;;;;;;;;;0.76;55.59;100226.50;4785997;29;7008;-72
2022/12/12 09:18:43;;;;;;;;;;;;;;;0.82;55.87;100223.63;4800424;29;6868;-72
2022/12/12 09:21:09;;;;;;;;;;;;;;;0.89;55.81;100233.47;4788018;29;6789;-72
2022/12/12 09:23:35;;;;;;;;;;;;;;;0.99;55.54;100236.78;4803321;29;6781;-72
2022/12/12 09:26:08;;;;;;;;;;;;;;;1.07;56.14;100236.66;4777759;29;6812;-72
2022/12/12 09:28:34;;;;;;;;;;;;;;;1.16;56.16;100233.13;4806755;29;6793;-72
2022/12/12 09:31:08;;;;;;;;;;;;;;;1.24;56.02;100235.50;4766648;29;7336;-72
2022/12/12 09:33:34;;;;;;;;;;;;;;;1.34;55.83;100242.22;4803075;29;7870;-72
2022/12/12 09:36:03;;;;;;;;;;;;;;;1.42;55.89;100245.38;4784599;29;6825;-72
2022/12/12 09:38:29;;;;;;;;;;;;;;;1.52;56.14;100236.91;4788136;29;6882;-72
2022/12/12 09:40:59;;;;;;;;;;;;;;;1.60;56.22;100243.47;4771262;29;7315;-72
2022/12/12 09:43:58;;;;;;;;;;;;;;;1.68;56.38;100241.56;4803353;29;6785;-72
2022/12/12 09:46:32;;;;;;;;;;;;;;;1.76;55.84;100234.59;4784497;29;6874;-72
2022/12/12 09:49:49;;;;;;;;;;;;;;;1.84;55.87;100232.69;4792563;29;8406;-72
2022/12/12 09:52:33;;;;;;;;;;;;;;;1.95;56.34;100236.97;4791065;29;6793;-72
2022/12/12 09:55:19;;;;;;;;;;;;;;;2.03;56.33;100224.94;4800166;29;6942;-72
2022/12/12 09:58:04;;;;;;;;;;;;;;;2.11;56.13;100225.53;4804413;29;6801;-73
2022/12/12 10:00:40;;;;;;;;;;;;;;;2.20;56.26;100221.19;4801771;29;7072;-72
2022/12/12 10:03:28;;;;;;;;;;;;;;;2.32;56.62;100212.06;4761439;29;7322;-72
2022/12/12 10:06:10;;;;;;;;;;;;;;;2.48;57.37;100219.19;4798974;29;7301;-73
2022/12/12 10:09:14;;;;;;;;;;;;;;;2.66;57.07;100223.91;4783211;29;6813;-72
2022/12/12 10:11:54;;;;;;;;;;;;;;;2.86;57.45;100220.34;4804850;29;6881;-72
2022/12/12 10:14:42;;;;;;;;;;;;;;;3.09;57.34;100215.25;4797967;29;8078;-72
2022/12/12 10:17:33;;;;;;;;;;;;;;;3.32;57.35;100214.44;4784517;29;6817;-72
2022/12/12 10:20:05;;;;;;;;;;;;;;;3.52;57.24;100212.50;4799894;29;7262;-72
2022/12/12 10:22:51;;;;;;;;;;;;;;;3.72;56.54;100208.88;4800590;29;6816;-72
2022/12/12 10:25:42;;;;;;;;;;;;;;;3.93;57.04;100207.00;4787344;29;6810;-72
2022/12/12 10:28:14;;;;;;;;;;;;;;;4.19;56.40;100205.44;4798295;29;6862;-73
2022/12/12 10:31:00;;;;;;;;;;;;;;;4.50;56.64;100197.41;4760855;29;7134;-73
2022/12/12 10:34:10;;;;;;;;;;;;;;;4.86;56.01;100195.63;4788624;29;6805;-73
2022/12/12 10:37:00;;;;;;;;;;;;;;;5.24;54.65;100193.00;4803178;29;6804;-73
2022/12/12 10:39:55;;;;;;;;;;;;;;;5.55;54.83;100192.47;4793090;29;6821;-73
2022/12/12 10:42:32;;;;;;;;;;;;;;;5.83;54.48;100187.47;4790603;29;7890;-73
2022/12/12 10:45:16;;;;;;;;;;;;;;;6.15;54.30;100181.84;4786342;29;6805;-73
2022/12/12 10:47:44;;;;;;;;;;;;;;;6.45;53.72;100182.81;4798632;29;8217;-73
2022/12/12 10:50:09;;;;;;;;;;;;;;;6.83;52.88;100179.94;4805207;29;7173;-73
2022/12/12 10:52:36;;;;;;;;;;;;;;;7.28;51.89;100177.44;4803946;29;6801;-73
2022/12/12 10:55:36;;;;;;;;;;;;;;;7.84;51.18;100189.13;4785243;29;6809;-73
2022/12/12 10:58:04;;;;;;;;;;;;;;;8.46;49.96;100179.66;4773770;29;8083;-73
2022/12/12 11:00:40;;;;;;;;;;;;;;;8.92;49.65;100188.03;4786989;29;7032;-73
2022/12/12 11:03:56;;;;;;;;;;;;;;;9.26;49.41;100182.03;4782870;29;8389;-73
2022/12/12 11:06:31;;;;;;;;;;;;;;;9.57;48.32;100175.88;4778951;29;6877;-73
2022/12/12 11:09:07;;;;;;;;;;;;;;;9.84;47.55;100174.56;4800933;29;7060;-73
2022/12/12 11:11:32;;;;;;;;;;;;;;;10.24;47.31;100165.31;4777384;29;7152;-73
2022/12/12 11:14:01;;;;;;;;;;;;;;;10.68;46.44;100158.75;4804578;29;7130;-73
2022/12/12 11:16:41;;;;;;;;;;;;;;;11.22;45.42;100161.84;4788467;29;7759;-73
2022/12/12 11:19:23;;;;;;;;;;;;;;;11.76;44.20;100161.44;4784276;29;6980;-73
2022/12/12 11:21:52;;;;;;;;;;;;;;;12.19;43.89;100151.09;4801390;29;7324;-73
2022/12/12 11:24:26;;;;;;;;;;;;;;;12.55;42.44;100154.97;4789086;29;6962;-73
2022/12/12 11:27:01;;;;;;;;;;;;;;;12.80;42.22;100148.13;4784787;29;7000;-73
2022/12/12 11:29:38;;;;;;;;;;;;;;;12.99;42.27;100147.06;4769953;29;7223;-73
2022/12/12 11:32:17;;;;;;;;;;;;;;;13.21;41.31;100148.66;4803915;29;7247;-73
2022/12/12 11:35:02;;;;;;;;;;;;;;;13.57;41.32;100144.66;4792362;29;7004;-73
2022/12/12 11:37:47;;;;;;;;;;;;;;;13.96;40.71;100136.41;4800644;29;7249;-73
2022/12/12 11:40:28;;;;;;;;;;;;;;;14.38;39.80;100134.16;4781164;29;6817;-73
2022/12/12 11:43:28;;;;;;;;;;;;;;;14.68;38.25;100125.56;4784701;29;6809;-73
2022/12/12 11:46:13;;;;;;;;;;;;;;;14.86;38.24;100118.28;4783190;29;7009;-73
2022/12/12 11:48:50;;;;;;;;;;;;;;;14.98;37.74;100119.47;4782780;29;7175;-73
2022/12/12 11:51:45;;;;;;;;;;;;;;;15.13;37.78;100122.41;4790605;29;6785;-73
2022/12/12 11:54:19;;;;;;;;;;;;;;;15.36;37.66;100118.66;4763438;29;6912;-73
2022/12/12 11:57:10;;;;;;;;;;;;;;;15.63;37.26;100120.16;4779782;29;7229;-73
2022/12/12 12:00:12;;;;;;;;;;;;;;;15.85;36.61;100115.44;4801577;29;6901;-73
2022/12/12 12:03:24;;;;;;;;;;;;;;;15.37;36.65;100115.22;4804123;29;11213;-73
2022/12/12 12:06:14;;;;;;;;;;;;;;;14.02;38.03;100118.56;4800203;29;6817;-73
2022/12/12 12:09:05;;;;;;;;;;;;;;;12.84;37.95;100121.69;4796482;29;7226;-73
2022/12/12 12:12:03;;;;;;;;;;;;;;;11.61;39.54;100123.19;4784827;29;6821;-74
2022/12/12 12:14:58;;;;;;;;;;;;;;;10.64;40.58;100125.22;4799932;29;6943;-73
2022/12/12 12:17:56;;;;;;;;;;;;;;;9.69;41.21;100128.66;4801801;29;7143;-73
2022/12/12 12:20:39;;;;;;;;;;;;;;;9.11;41.84;100130.16;4777249;29;7133;-73
2022/12/12 12:23:35;;;;;;;;;;;;;;;8.67;43.07;100125.41;4789707;29;8028;-73
2022/12/12 12:26:42;;;;;;;;;;;;;;;8.17;43.10;100127.06;4798081;29;6821;-72
2022/12/12 12:29:26;;;;;;;;;;;;;;;7.80;43.66;100125.94;4791285;29;7014;-73
2022/12/12 12:32:10;;;;;;;;;;;;;;;7.54;44.02;100127.94;4779204;29;7016;-73
2022/12/12 12:35:00;;;;;;;;;;;;;;;7.29;44.33;100134.22;4796841;29;7128;-72
2022/12/12 12:37:55;;;;;;;;;;;;;;;7.09;44.25;100128.84;4781299;29;6809;-72
2022/12/12 12:40:45;;;;;;;;;;;;;;;6.89;44.91;100122.59;4793383;29;6870;-73
2022/12/12 12:43:49;;;;;;;;;;;;;;;6.73;44.75;100122.50;4795634;29;6801;-73
2022/12/12 12:46:58;;;;;;;;;;;;;;;6.58;45.48;100125.03;4787998;29;6813;-73
2022/12/12 12:49:26;;;;;;;;;;;;;;;6.45;46.04;100121.72;4793384;29;6813;-73
2022/12/12 12:52:09;;;;;;;;;;;;;;;6.36;45.56;100116.06;4776709;29;6998;-72
2022/12/12 12:54:42;;;;;;;;;;;;;;;6.28;45.54;100122.34;4786480;29;7168;-73
2022/12/12 12:57:43;;;;;;;;;;;;;;;6.17;45.62;100117.50;4787261;29;7339;-73
2022/12/12 13:00:24;;;;;;;;;;;;;;;6.10;45.86;100121.34;4786278;29;7011;-73
2022/12/12 13:03:06;;;;;;;;;;;;;;;6.05;46.02;100119.28;4782710;29;11543;-73
2022/12/12 13:05:43;;;;;;;;;;;;;;;5.99;46.11;100124.84;4783545;29;6809;-73
2022/12/12 13:08:38;;;;;;;;;;;;;;;5.94;46.52;100122.03;4779996;29;6990;-73
2022/12/12 13:11:25;;;;;;;;;;;;;;;5.91;46.42;100124.38;4801837;29;6877;-72
2022/12/12 13:13:58;;;;;;;;;;;;;;;5.88;46.16;100120.78;4799096;29;6809;-73
2022/12/12 13:16:31;;;;;;;;;;;;;;;5.84;46.61;100119.69;4801578;29;6817;-72
2022/12/12 13:19:31;;;;;;;;;;;;;;;5.80;46.49;100122.84;4788369;29;6797;-72
2022/12/12 13:22:07;;;;;;;;;;;;;;;5.75;46.25;100116.56;4744470;29;6991;-73
2022/12/12 13:25:09;;;;;;;;;;;;;;;5.73;46.32;100116.47;4781817;29;6805;-73
2022/12/12 13:27:44;;;;;;;;;;;;;;;5.66;46.18;100106.72;4798762;29;6836;-72
2022/12/12 13:31:16;;;;;;;;;;;;;;;5.64;46.62;100101.53;4767326;29;8533;-72
2022/12/12 13:33:56;;;;;;;;;;;;;;;5.59;46.48;100109.66;4763764;29;8531;-73
2022/12/12 13:36:30;;;;;;;;;;;;;;;5.58;46.61;100105.34;4803111;29;7012;-72
2022/12/12 13:39:00;;;;;;;;;;;;;;;5.56;46.80;100100.16;4788495;29;6877;-72
2022/12/12 13:41:26;;;;;;;;;;;;;;;5.55;46.23;100101.84;4781704;29;6801;-72
2022/12/12 13:43:58;;;;;;;;;;;;;;;5.55;46.82;100100.94;4780856;29;7848;-72
2022/12/12 13:46:25;;;;;;;;;;;;;;;5.52;46.40;100098.22;4797494;29;6849;-72
2022/12/12 13:49:17;;;;;;;;;;;;;;;5.51;46.93;100099.00;4799107;29;6793;-72
2022/12/12 13:51:44;;;;;;;;;;;;;;;5.48;46.50;100093.69;4795065;29;6960;-72